createdAt,value
2022-08-10T00:00:07.151Z,15.20
2022-08-10T00:00:38.746Z,15.09
2022-08-10T00:01:10.484Z,15.03
2022-08-10T00:01:42.124Z,15.05
2022-08-10T00:02:13.852Z,15.09
2022-08-10T00:02:45.527Z,15.03
2022-08-10T00:03:17.225Z,14.98
2022-08-10T00:03:48.774Z,14.83
2022-08-10T00:04:22.529Z,14.91
2022-08-10T00:04:54.449Z,15.00
2022-08-10T00:05:26.907Z,15.07
2022-08-10T00:06:14.972Z,14.82
2022-08-10T00:06:46.534Z,14.88
2022-08-10T00:07:19.164Z,14.97
2022-08-10T00:07:50.901Z,14.97
2022-08-10T00:08:25.131Z,15.00
2022-08-10T00:08:56.987Z,15.00
2022-08-10T00:09:28.653Z,15.15
2022-08-10T00:10:00.214Z,15.13
2022-08-10T00:10:32.050Z,15.28
2022-08-10T00:11:03.705Z,15.24
2022-08-10T00:11:35.877Z,15.12
2022-08-10T00:12:08.505Z,15.06
2022-08-10T00:12:53.453Z,15.07
2022-08-10T00:13:26.436Z,15.11
2022-08-10T00:13:58.041Z,15.17
2022-08-10T00:14:32.951Z,15.08
2022-08-10T00:15:05.973Z,15.05
2022-08-10T00:15:52.353Z,15.09
2022-08-10T00:16:26.126Z,15.15
2022-08-10T00:16:57.774Z,15.12
2022-08-10T00:17:29.362Z,15.14
2022-08-10T00:18:01.253Z,15.13
2022-08-10T00:18:35.961Z,15.03
2022-08-10T00:19:07.941Z,15.08
2022-08-10T00:20:03.436Z,15.11
2022-08-10T00:20:32.879Z,15.18
2022-08-10T00:21:06.537Z,15.19
2022-08-10T00:21:38.118Z,15.14
2022-08-10T00:22:11.493Z,15.18
2022-08-10T00:22:57.280Z,15.19
2022-08-10T00:23:29.216Z,15.23
2022-08-10T00:24:00.821Z,15.24
2022-08-10T00:24:32.595Z,15.27
2022-08-10T00:25:05.809Z,15.27
2022-08-10T00:25:37.390Z,15.27
2022-08-10T00:26:08.995Z,15.24
2022-08-10T00:27:58.633Z,15.19
2022-08-10T00:28:01.817Z,15.15
2022-08-10T00:28:23.862Z,15.19
2022-08-10T00:28:55.656Z,15.12
2022-08-10T00:29:27.352Z,15.13
2022-08-10T00:29:59.220Z,15.12
2022-08-10T00:30:30.854Z,15.12
2022-08-10T00:31:02.507Z,15.19
2022-08-10T00:31:34.065Z,15.15
2022-08-10T00:32:25.648Z,15.16
2022-08-10T00:32:57.510Z,15.14
2022-08-10T00:33:29.116Z,15.11
2022-08-10T00:34:00.702Z,15.11
2022-08-10T00:34:33.554Z,15.10
2022-08-10T00:35:05.560Z,15.10
2022-08-10T00:35:37.953Z,15.09
2022-08-10T00:36:09.674Z,15.08
2022-08-10T00:36:41.317Z,15.05
2022-08-10T00:37:14.155Z,14.95
2022-08-10T00:37:45.687Z,14.93
2022-08-10T00:38:28.377Z,15.02
2022-08-10T00:38:59.985Z,15.02
2022-08-10T00:39:33.134Z,14.94
2022-08-10T00:40:08.855Z,14.88
2022-08-10T00:40:40.453Z,14.68
2022-08-10T00:41:12.092Z,14.67
2022-08-10T00:41:43.620Z,14.62
2022-08-10T00:42:15.790Z,14.58
2022-08-10T00:42:47.563Z,14.42
2022-08-10T00:43:23.865Z,14.48
2022-08-10T00:43:55.754Z,14.44
2022-08-10T00:44:27.494Z,14.37
2022-08-10T00:44:59.069Z,14.46
2022-08-10T00:45:30.632Z,14.63
2022-08-10T00:46:02.260Z,14.62
2022-08-10T00:46:33.882Z,14.56
2022-08-10T00:47:06.432Z,14.55
2022-08-10T00:47:38.028Z,14.50
2022-08-10T00:48:09.607Z,14.46
2022-08-10T00:48:41.128Z,14.28
2022-08-10T00:49:13.510Z,14.34
2022-08-10T00:49:45.201Z,14.36
2022-08-10T00:50:18.139Z,14.28
2022-08-10T00:50:49.746Z,14.31
2022-08-10T00:51:21.443Z,14.19
2022-08-10T00:52:13.376Z,14.20
2022-08-10T00:52:46.097Z,14.19
2022-08-10T00:53:17.744Z,14.35
2022-08-10T00:53:49.340Z,14.27
2022-08-10T00:54:24.371Z,14.28
2022-08-10T00:54:56.831Z,14.50
2022-08-10T00:55:28.765Z,14.52
2022-08-10T00:57:14.614Z,14.59
2022-08-10T00:57:16.514Z,14.60
2022-08-10T00:57:44.643Z,14.71
2022-08-10T00:58:16.223Z,14.74
2022-08-10T00:58:48.150Z,14.69
2022-08-10T00:59:19.865Z,14.73
2022-08-10T00:59:58.915Z,14.77
2022-08-10T01:00:31.726Z,14.72
2022-08-10T01:01:03.398Z,14.69
2022-08-10T01:02:09.257Z,14.59
2022-08-10T01:02:32.804Z,14.46
2022-08-10T01:03:04.818Z,14.58
2022-08-10T01:04:36.427Z,14.56
2022-08-10T01:04:57.774Z,14.59
2022-08-10T01:05:20.705Z,14.48
2022-08-10T01:06:01.747Z,14.42
2022-08-10T01:06:45.441Z,14.44
2022-08-10T01:07:24.209Z,14.45
2022-08-10T01:08:14.526Z,14.28
2022-08-10T01:08:55.583Z,14.34
2022-08-10T01:09:37.836Z,14.37
2022-08-10T01:10:36.476Z,14.37
2022-08-10T01:12:31.387Z,14.29
2022-08-10T01:12:55.149Z,14.18
2022-08-10T01:13:35.070Z,14.24
2022-08-10T01:14:38.285Z,14.19
2022-08-10T01:15:19.656Z,14.24
2022-08-10T01:16:04.659Z,14.40
2022-08-10T01:16:42.048Z,14.32
2022-08-10T01:17:18.091Z,14.37
2022-08-10T01:18:00.031Z,14.36
2022-08-10T01:18:40.668Z,14.42
2022-08-10T01:19:36.639Z,14.21
2022-08-10T01:20:38.616Z,14.24
2022-08-10T01:21:25.117Z,14.32
2022-08-10T01:22:34.013Z,14.28
2022-08-10T01:23:38.916Z,14.21
2022-08-10T01:24:47.672Z,14.27
2022-08-10T01:25:26.350Z,14.32
2022-08-10T01:26:11.946Z,14.35
2022-08-10T01:27:13.915Z,14.22
2022-08-10T01:27:45.379Z,14.10
2022-08-10T01:28:41.368Z,13.99
2022-08-10T01:29:12.866Z,13.95
2022-08-10T01:29:53.991Z,14.06
2022-08-10T01:30:28.390Z,14.03
2022-08-10T01:31:01.980Z,14.10
2022-08-10T01:31:45.809Z,14.06
2022-08-10T01:32:26.611Z,14.15
2022-08-10T01:33:10.934Z,14.25
2022-08-10T01:33:58.775Z,14.23
2022-08-10T01:34:49.826Z,14.23
2022-08-10T01:35:38.479Z,14.20
2022-08-10T01:36:14.995Z,14.18
2022-08-10T01:36:51.377Z,14.13
2022-08-10T01:37:26.910Z,14.18
2022-08-10T01:38:04.206Z,14.07
2022-08-10T01:38:45.775Z,13.86
2022-08-10T01:39:24.212Z,13.89
2022-08-10T01:39:59.149Z,13.96
2022-08-10T01:40:33.068Z,13.92
2022-08-10T01:41:11.546Z,13.96
2022-08-10T01:41:46.797Z,13.96
2022-08-10T01:42:20.357Z,14.01
2022-08-10T01:42:53.315Z,14.02
2022-08-10T01:43:28.217Z,14.03
2022-08-10T01:44:09.610Z,14.18
2022-08-10T01:45:06.041Z,14.14
2022-08-10T01:45:45.006Z,14.12
2022-08-10T01:46:17.230Z,14.14
2022-08-10T01:46:56.772Z,14.14
2022-08-10T01:47:52.368Z,14.14
2022-08-10T01:48:42.560Z,14.10
2022-08-10T01:49:16.276Z,14.01
2022-08-10T01:49:49.220Z,13.98
2022-08-10T01:50:27.054Z,14.00
2022-08-10T01:51:08.216Z,13.99
2022-08-10T01:51:42.884Z,13.97
2022-08-10T01:52:18.200Z,13.81
2022-08-10T01:52:53.422Z,13.72
2022-08-10T01:53:40.003Z,13.73
2022-08-10T01:54:14.777Z,13.80
2022-08-10T01:54:47.285Z,13.85
2022-08-10T01:55:20.218Z,13.84
2022-08-10T01:55:54.564Z,13.81
2022-08-10T01:56:29.822Z,13.73
2022-08-10T01:57:02.191Z,13.63
2022-08-10T01:57:34.329Z,13.52
2022-08-10T01:58:07.257Z,13.57
2022-08-10T01:58:39.106Z,13.59
2022-08-10T01:59:16.720Z,13.68
2022-08-10T01:59:54.748Z,13.50
2022-08-10T02:00:38.838Z,13.54
2022-08-10T02:01:16.680Z,13.51
2022-08-10T02:01:52.614Z,13.51
2022-08-10T02:02:25.639Z,13.39
2022-08-10T02:02:58.376Z,13.34
2022-08-10T02:03:31.468Z,13.26
2022-08-10T02:04:07.237Z,13.26
2022-08-10T02:04:40.826Z,13.28
2022-08-10T02:05:15.947Z,13.29
2022-08-10T02:05:50.225Z,13.38
2022-08-10T02:06:23.010Z,13.38
2022-08-10T02:06:55.895Z,13.41
2022-08-10T02:07:29.816Z,13.45
2022-08-10T02:08:02.799Z,13.46
2022-08-10T02:08:35.507Z,13.42
2022-08-10T02:09:08.025Z,13.45
2022-08-10T02:09:45.966Z,13.45
2022-08-10T02:10:19.321Z,13.35
2022-08-10T02:10:52.915Z,13.33
2022-08-10T02:11:25.789Z,13.38
2022-08-10T02:12:07.208Z,13.44
2022-08-10T02:12:42.242Z,13.39
2022-08-10T02:13:15.512Z,13.24
2022-08-10T02:13:51.236Z,13.17
2022-08-10T02:14:33.590Z,13.11
2022-08-10T02:15:09.040Z,13.06
2022-08-10T02:16:02.011Z,12.97
2022-08-10T02:16:34.028Z,13.00
2022-08-10T02:17:58.686Z,12.99
2022-08-10T02:18:03.520Z,12.91
2022-08-10T02:18:35.604Z,12.96
2022-08-10T02:19:07.458Z,12.83
2022-08-10T02:19:44.337Z,12.83
2022-08-10T02:20:18.924Z,12.85
2022-08-10T02:20:51.879Z,12.81
2022-08-10T02:21:25.609Z,12.79
2022-08-10T02:22:36.625Z,12.80
2022-08-10T02:22:59.483Z,12.79
2022-08-10T02:23:33.324Z,12.78
2022-08-10T02:24:08.598Z,12.66
2022-08-10T02:24:41.448Z,12.69
2022-08-10T02:25:41.227Z,12.69
2022-08-10T02:26:07.644Z,12.78
2022-08-10T02:26:42.155Z,12.88
2022-08-10T02:27:14.250Z,12.89
2022-08-10T02:27:47.130Z,12.92
2022-08-10T02:28:27.444Z,12.88
2022-08-10T02:29:02.339Z,12.80
2022-08-10T02:29:34.188Z,12.75
2022-08-10T02:30:08.933Z,12.81
2022-08-10T02:30:41.250Z,12.88
2022-08-10T02:31:18.040Z,12.88
2022-08-10T02:31:54.352Z,12.81
2022-08-10T02:32:36.314Z,12.80
2022-08-10T02:33:10.115Z,12.63
2022-08-10T02:33:56.495Z,12.57
2022-08-10T02:34:29.696Z,12.57
2022-08-10T02:35:04.789Z,12.44
2022-08-10T02:35:54.460Z,12.46
2022-08-10T02:36:30.134Z,12.52
2022-08-10T02:37:04.132Z,12.46
2022-08-10T02:37:46.906Z,12.53
2022-08-10T02:38:59.036Z,12.49
2022-08-10T02:39:16.687Z,12.49
2022-08-10T02:39:48.309Z,12.50
2022-08-10T02:42:18.161Z,12.63
2022-08-10T02:45:01.480Z,12.57
2022-08-10T02:45:01.820Z,12.62
2022-08-10T02:45:20.126Z,12.62
2022-08-10T02:45:23.044Z,12.45
2022-08-10T02:45:57.014Z,12.42
2022-08-10T02:46:49.665Z,12.42
2022-08-10T02:47:51.027Z,12.45
2022-08-10T02:48:32.685Z,12.37
2022-08-10T02:49:05.296Z,12.43
2022-08-10T02:49:42.842Z,12.52
2022-08-10T02:50:26.874Z,12.45
2022-08-10T02:51:02.006Z,12.45
2022-08-10T02:52:06.747Z,12.49
2022-08-10T02:52:46.777Z,12.47
2022-08-10T02:53:54.632Z,12.41
2022-08-10T02:54:30.921Z,12.48
2022-08-10T02:55:18.217Z,12.48
2022-08-10T02:55:58.606Z,12.39
2022-08-10T02:56:34.528Z,12.41
2022-08-10T02:57:23.169Z,12.33
2022-08-10T02:58:13.339Z,12.28
2022-08-10T02:58:53.691Z,12.28
2022-08-10T02:59:40.062Z,12.30
2022-08-10T03:00:12.509Z,12.18
2022-08-10T03:00:47.527Z,12.16
2022-08-10T03:01:23.541Z,12.23
2022-08-10T03:01:58.609Z,12.24
2022-08-10T03:02:34.481Z,12.19
2022-08-10T03:03:06.695Z,12.07
2022-08-10T03:03:53.193Z,12.04
2022-08-10T03:04:54.970Z,12.05
2022-08-10T03:05:23.286Z,12.13
2022-08-10T03:06:00.073Z,12.12
2022-08-10T03:06:38.569Z,12.05
2022-08-10T03:07:12.116Z,12.09
2022-08-10T03:07:59.465Z,12.04
2022-08-10T03:08:34.319Z,12.05
2022-08-10T03:09:09.917Z,12.08
2022-08-10T03:09:42.096Z,12.18
2022-08-10T03:10:19.604Z,12.28
2022-08-10T03:10:51.630Z,12.40
2022-08-10T03:12:35.250Z,12.43
2022-08-10T03:12:38.224Z,12.48
2022-08-10T03:13:10.412Z,12.53
2022-08-10T03:13:43.204Z,12.53
2022-08-10T03:14:15.382Z,12.58
2022-08-10T03:14:47.789Z,12.54
2022-08-10T03:15:21.557Z,12.53
2022-08-10T03:15:53.290Z,12.44
2022-08-10T03:16:25.432Z,12.48
2022-08-10T03:17:05.621Z,12.54
2022-08-10T03:17:37.545Z,12.58
2022-08-10T03:18:09.893Z,12.62
2022-08-10T03:18:41.878Z,12.66
2022-08-10T03:20:35.960Z,12.68
2022-08-10T03:20:37.019Z,12.65
2022-08-10T03:20:59.319Z,12.71
2022-08-10T03:21:31.566Z,12.64
2022-08-10T03:22:04.492Z,12.64
2022-08-10T03:22:36.816Z,12.61
2022-08-10T03:23:12.950Z,12.67
2022-08-10T03:23:45.667Z,12.68
2022-08-10T03:24:32.854Z,12.71
2022-08-10T03:25:06.263Z,12.67
2022-08-10T03:25:38.036Z,12.68
2022-08-10T03:26:10.196Z,12.69
2022-08-10T03:26:42.241Z,12.72
2022-08-10T03:27:14.655Z,12.71
2022-08-10T03:27:47.813Z,12.74
2022-08-10T03:28:20.786Z,12.64
2022-08-10T03:28:53.235Z,12.61
2022-08-10T03:29:25.073Z,12.61
2022-08-10T03:30:28.650Z,12.64
2022-08-10T03:30:48.620Z,12.66
2022-08-10T03:31:20.600Z,12.71
2022-08-10T03:31:52.293Z,12.73
2022-08-10T03:32:25.528Z,12.60
2022-08-10T03:32:57.827Z,12.57
2022-08-10T03:33:32.593Z,12.61
2022-08-10T03:34:05.396Z,12.63
2022-08-10T03:34:54.236Z,12.54
2022-08-10T03:35:26.340Z,12.61
2022-08-10T03:36:43.416Z,12.59
2022-08-10T03:36:49.809Z,12.60
2022-08-10T03:37:21.461Z,12.57
2022-08-10T03:37:59.137Z,12.44
2022-08-10T03:38:32.555Z,12.52
2022-08-10T03:39:04.146Z,12.57
2022-08-10T03:39:35.780Z,12.55
2022-08-10T03:40:08.209Z,12.54
2022-08-10T03:40:46.388Z,12.55
2022-08-10T03:41:38.621Z,12.46
2022-08-10T03:42:12.823Z,12.48
2022-08-10T03:42:45.897Z,12.53
2022-08-10T03:43:20.434Z,12.31
2022-08-10T03:43:52.912Z,12.32
2022-08-10T03:44:32.184Z,12.37
2022-08-10T03:45:06.071Z,12.39
2022-08-10T03:45:41.773Z,12.35
2022-08-10T03:46:26.905Z,12.22
2022-08-10T03:47:01.067Z,12.19
2022-08-10T03:47:34.472Z,12.13
2022-08-10T03:48:06.951Z,12.06
2022-08-10T03:48:48.897Z,12.02
2022-08-10T03:49:21.645Z,12.01
2022-08-10T03:49:53.992Z,11.96
2022-08-10T03:50:51.422Z,11.94
2022-08-10T03:51:20.221Z,11.94
2022-08-10T03:51:51.981Z,12.00
2022-08-10T03:52:23.852Z,11.98
2022-08-10T03:52:55.886Z,12.03
2022-08-10T03:54:05.888Z,12.05
2022-08-10T03:54:19.596Z,12.02
2022-08-10T03:54:52.829Z,12.05
2022-08-10T03:56:27.459Z,11.87
2022-08-10T03:56:29.750Z,11.86
2022-08-10T03:57:02.666Z,11.90
2022-08-10T03:57:34.316Z,11.92
2022-08-10T03:58:05.898Z,11.81
2022-08-10T03:58:37.492Z,11.74
2022-08-10T03:59:14.390Z,11.81
2022-08-10T03:59:46.542Z,11.88
2022-08-10T04:00:18.757Z,11.96
2022-08-10T04:00:51.360Z,12.01
2022-08-10T04:02:44.343Z,12.08
2022-08-10T04:02:46.745Z,12.09
2022-08-10T04:03:07.331Z,12.13
2022-08-10T04:03:38.883Z,12.15
2022-08-10T04:04:12.337Z,12.10
2022-08-10T04:04:46.175Z,12.16
2022-08-10T04:05:17.804Z,12.21
2022-08-10T04:05:49.384Z,12.16
2022-08-10T04:06:21.097Z,12.16
2022-08-10T04:06:55.432Z,12.20
2022-08-10T04:07:28.443Z,12.23
2022-08-10T04:08:01.064Z,12.20
2022-08-10T04:08:32.956Z,12.15
2022-08-10T04:09:04.552Z,12.22
2022-08-10T04:09:53.271Z,12.25
2022-08-10T04:10:26.576Z,12.22
2022-08-10T04:11:00.672Z,12.26
2022-08-10T04:11:32.984Z,12.31
2022-08-10T04:12:04.985Z,12.37
2022-08-10T04:12:37.083Z,12.41
2022-08-10T04:13:08.946Z,12.36
2022-08-10T04:13:40.652Z,12.37
2022-08-10T04:14:38.797Z,12.35
2022-08-10T04:15:04.169Z,12.40
2022-08-10T04:15:35.713Z,12.37
2022-08-10T04:16:07.653Z,12.29
2022-08-10T04:16:39.372Z,12.21
2022-08-10T04:17:14.092Z,12.16
2022-08-10T04:18:05.114Z,12.09
2022-08-10T04:18:37.457Z,12.17
2022-08-10T04:19:09.527Z,12.27
2022-08-10T04:19:44.889Z,12.19
2022-08-10T04:20:19.592Z,12.23
2022-08-10T04:20:58.360Z,12.27
2022-08-10T04:21:37.486Z,12.33
2022-08-10T04:22:15.305Z,12.34
2022-08-10T04:22:52.425Z,12.24
2022-08-10T04:23:25.854Z,12.25
2022-08-10T04:23:59.005Z,12.26
2022-08-10T04:24:33.191Z,12.24
2022-08-10T04:25:05.486Z,12.25
2022-08-10T04:25:38.559Z,12.16
2022-08-10T04:26:11.544Z,12.03
2022-08-10T04:26:43.793Z,12.07
2022-08-10T04:27:15.940Z,12.03
2022-08-10T04:27:47.637Z,12.00
2022-08-10T04:28:19.387Z,12.01
2022-08-10T04:28:50.968Z,11.99
2022-08-10T04:29:22.673Z,11.94
2022-08-10T04:29:55.455Z,11.96
2022-08-10T04:30:29.035Z,11.92
2022-08-10T04:31:01.372Z,11.91
2022-08-10T04:31:33.585Z,11.87
2022-08-10T04:32:05.742Z,11.88
2022-08-10T04:32:37.898Z,11.86
2022-08-10T04:33:11.306Z,11.88
2022-08-10T04:33:45.893Z,11.91
2022-08-10T04:34:17.969Z,11.87
2022-08-10T04:34:50.949Z,11.88
2022-08-10T04:35:23.968Z,11.97
2022-08-10T04:35:56.282Z,12.01
2022-08-10T04:36:28.603Z,12.11
2022-08-10T04:37:05.458Z,12.16
2022-08-10T04:37:43.406Z,12.11
2022-08-10T04:38:19.766Z,12.22
2022-08-10T04:38:52.878Z,12.34
2022-08-10T04:39:24.627Z,12.33
2022-08-10T04:39:56.835Z,12.37
2022-08-10T04:40:30.919Z,12.39
2022-08-10T04:41:02.881Z,12.40
2022-08-10T04:41:35.948Z,12.38
2022-08-10T04:42:07.745Z,12.26
2022-08-10T04:42:39.496Z,12.26
2022-08-10T04:43:13.213Z,12.32
2022-08-10T04:43:46.024Z,12.46
2022-08-10T04:44:17.601Z,12.52
2022-08-10T04:44:50.928Z,12.41
2022-08-10T04:45:22.472Z,12.29
2022-08-10T04:46:56.233Z,12.42
2022-08-10T04:47:05.876Z,12.56
2022-08-10T04:48:00.521Z,12.64
2022-08-10T04:48:40.009Z,12.67
2022-08-10T04:49:54.054Z,12.71
2022-08-10T04:50:07.244Z,12.76
2022-08-10T04:50:39.534Z,12.79
2022-08-10T04:51:16.999Z,12.82
2022-08-10T04:51:49.913Z,12.86
2022-08-10T04:52:21.497Z,12.87
2022-08-10T04:52:56.853Z,12.85
2022-08-10T04:53:28.728Z,12.79
2022-08-10T04:54:03.092Z,12.86
2022-08-10T04:54:37.977Z,12.90
2022-08-10T04:55:09.716Z,12.93
2022-08-10T04:55:41.375Z,12.97
2022-08-10T04:56:12.902Z,12.98
2022-08-10T04:56:44.485Z,12.98
2022-08-10T04:57:16.072Z,12.97
2022-08-10T04:57:47.701Z,12.97
2022-08-10T04:58:19.525Z,12.97
2022-08-10T04:58:51.378Z,12.97
2022-08-10T04:59:23.677Z,12.99
2022-08-10T04:59:55.286Z,12.97
2022-08-10T05:00:26.911Z,12.99
2022-08-10T05:00:58.841Z,12.93
2022-08-10T05:02:09.793Z,12.94
2022-08-10T05:02:31.361Z,12.93
2022-08-10T05:03:03.873Z,12.93
2022-08-10T05:03:35.555Z,13.03
2022-08-10T05:04:36.445Z,13.11
2022-08-10T05:05:10.531Z,13.10
2022-08-10T05:05:42.948Z,13.10
2022-08-10T05:06:14.463Z,13.13
2022-08-10T05:06:46.119Z,13.17
2022-08-10T05:07:18.584Z,13.14
2022-08-10T05:07:54.229Z,13.13
2022-08-10T05:08:31.348Z,13.06
2022-08-10T05:09:03.361Z,13.01
2022-08-10T05:10:02.468Z,13.04
2022-08-10T05:10:26.384Z,12.84
2022-08-10T05:10:57.975Z,12.89
2022-08-10T05:11:29.505Z,13.01
2022-08-10T05:12:01.020Z,13.13
2022-08-10T05:12:37.924Z,13.21
2022-08-10T05:13:10.223Z,13.26
2022-08-10T05:13:41.739Z,13.44
2022-08-10T05:14:13.284Z,13.43
2022-08-10T05:14:44.821Z,13.46
2022-08-10T05:15:19.143Z,13.53
2022-08-10T05:15:51.989Z,13.61
2022-08-10T05:16:30.706Z,13.68
2022-08-10T05:17:04.062Z,13.77
2022-08-10T05:17:37.025Z,13.78
2022-08-10T05:18:11.415Z,13.84
2022-08-10T05:18:43.094Z,13.86
2022-08-10T05:19:14.654Z,13.93
2022-08-10T05:20:03.719Z,13.99
2022-08-10T05:20:37.776Z,13.93
2022-08-10T05:21:09.307Z,13.93
2022-08-10T05:21:53.022Z,13.98
2022-08-10T05:22:34.111Z,14.04
2022-08-10T05:23:05.709Z,14.10
2022-08-10T05:23:37.288Z,14.12
2022-08-10T05:24:08.869Z,14.13
2022-08-10T05:24:40.409Z,14.11
2022-08-10T05:25:15.473Z,14.13
2022-08-10T05:25:47.252Z,14.17
2022-08-10T05:26:21.729Z,14.15
2022-08-10T05:27:00.780Z,14.20
2022-08-10T05:27:43.932Z,14.28
2022-08-10T05:28:15.842Z,14.32
2022-08-10T05:28:47.512Z,14.32
2022-08-10T05:29:19.153Z,14.37
2022-08-10T05:30:01.179Z,14.36
2022-08-10T05:30:34.225Z,14.39
2022-08-10T05:31:05.978Z,14.44
2022-08-10T05:31:37.544Z,14.43
2022-08-10T05:32:09.162Z,14.47
2022-08-10T05:32:57.354Z,14.49
2022-08-10T05:33:31.667Z,14.59
2022-08-10T05:34:03.466Z,14.64
2022-08-10T05:34:35.118Z,14.68
2022-08-10T05:35:07.380Z,14.74
2022-08-10T05:35:51.770Z,14.79
2022-08-10T05:36:29.848Z,14.82
2022-08-10T05:37:01.959Z,14.81
2022-08-10T05:38:10.157Z,14.80
2022-08-10T05:38:26.825Z,14.82
2022-08-10T05:38:59.210Z,14.87
2022-08-10T05:39:32.372Z,14.86
2022-08-10T05:40:06.349Z,14.83
2022-08-10T05:40:39.383Z,14.83
2022-08-10T05:41:11.066Z,14.85
2022-08-10T05:41:46.911Z,14.86
2022-08-10T05:42:21.694Z,14.87
2022-08-10T05:42:53.296Z,14.88
2022-08-10T05:43:24.981Z,14.97
2022-08-10T05:43:56.922Z,15.08
2022-08-10T05:44:29.424Z,15.13
2022-08-10T05:45:01.295Z,15.15
2022-08-10T05:45:33.077Z,15.19
2022-08-10T05:46:17.572Z,15.19
2022-08-10T05:46:52.621Z,15.11
2022-08-10T05:47:24.663Z,15.15
2022-08-10T05:48:57.769Z,15.17
2022-08-10T05:48:59.098Z,15.23
2022-08-10T05:49:32.725Z,15.33
2022-08-10T05:50:04.774Z,15.35
2022-08-10T05:50:36.812Z,15.39
2022-08-10T05:51:08.984Z,15.38
2022-08-10T05:51:40.820Z,15.34
2022-08-10T05:52:12.417Z,15.45
2022-08-10T05:52:44.114Z,15.60
2022-08-10T05:53:59.023Z,15.74
2022-08-10T05:54:14.922Z,15.98
2022-08-10T05:54:47.190Z,16.25
2022-08-10T05:55:19.017Z,16.33
2022-08-10T05:55:50.837Z,16.33
2022-08-10T05:56:22.428Z,16.58
2022-08-10T05:56:58.045Z,16.66
2022-08-10T05:57:30.373Z,16.74
2022-08-10T05:58:01.982Z,16.92
2022-08-10T05:58:37.795Z,17.22
2022-08-10T05:59:13.855Z,17.62
2022-08-10T06:00:10.926Z,18.27
2022-08-10T06:00:56.654Z,19.44
2022-08-10T06:01:29.656Z,19.84
2022-08-10T06:02:31.156Z,20.37
2022-08-10T06:02:59.558Z,21.07
2022-08-10T06:03:38.532Z,21.53
2022-08-10T06:04:12.028Z,21.56
2022-08-10T06:04:44.339Z,21.55
2022-08-10T06:05:17.740Z,21.80
2022-08-10T06:05:49.391Z,21.85
2022-08-10T06:06:24.832Z,21.77
2022-08-10T06:06:58.450Z,21.78
2022-08-10T06:07:30.384Z,22.02
2022-08-10T06:08:16.179Z,22.55
2022-08-10T06:08:49.836Z,22.27
2022-08-10T06:09:21.904Z,22.13
2022-08-10T06:09:59.687Z,22.41
2022-08-10T06:10:35.364Z,22.79
2022-08-10T06:12:23.600Z,22.99
2022-08-10T06:12:28.262Z,22.74
2022-08-10T06:13:29.727Z,22.93
2022-08-10T06:14:28.486Z,22.70
2022-08-10T06:15:05.559Z,22.85
2022-08-10T06:15:45.607Z,22.73
2022-08-10T06:16:24.649Z,22.69
2022-08-10T06:16:56.914Z,22.96
2022-08-10T06:17:30.395Z,23.24
2022-08-10T06:18:02.868Z,23.29
2022-08-10T06:18:36.050Z,23.76
2022-08-10T06:19:07.955Z,24.20
2022-08-10T06:19:41.429Z,24.33
2022-08-10T06:20:13.318Z,23.93
2022-08-10T06:20:45.789Z,23.42
2022-08-10T06:21:17.492Z,22.74
2022-08-10T06:22:00.586Z,22.56
2022-08-10T06:22:33.520Z,22.59
2022-08-10T06:23:06.547Z,22.54
2022-08-10T06:23:39.627Z,22.32
2022-08-10T06:24:12.182Z,22.68
2022-08-10T06:25:12.332Z,23.01
2022-08-10T06:26:12.028Z,23.00
2022-08-10T06:26:27.635Z,23.38
2022-08-10T06:27:00.113Z,23.57
2022-08-10T06:27:34.723Z,23.72
2022-08-10T06:28:09.689Z,24.17
2022-08-10T06:29:02.086Z,24.43
2022-08-10T06:29:37.515Z,24.50
2022-08-10T06:30:20.232Z,24.41
2022-08-10T06:30:54.061Z,24.15
2022-08-10T06:31:26.295Z,23.95
2022-08-10T06:31:59.160Z,24.14
2022-08-10T06:32:30.995Z,23.80
2022-08-10T06:33:03.052Z,23.80
2022-08-10T06:33:37.018Z,23.84
2022-08-10T06:34:10.177Z,23.86
2022-08-10T06:34:52.971Z,23.98
2022-08-10T06:35:28.315Z,24.00
2022-08-10T06:36:00.669Z,23.86
2022-08-10T06:36:34.141Z,23.97
2022-08-10T06:37:07.565Z,23.95
2022-08-10T06:37:40.102Z,24.34
2022-08-10T06:38:12.798Z,24.32
2022-08-10T06:38:45.794Z,24.47
2022-08-10T06:39:32.827Z,24.50
2022-08-10T06:40:06.486Z,24.59
2022-08-10T06:40:41.061Z,24.73
2022-08-10T06:41:19.954Z,24.76
2022-08-10T06:42:14.364Z,24.67
2022-08-10T06:42:49.626Z,24.85
2022-08-10T06:43:23.261Z,25.06
2022-08-10T06:44:01.354Z,25.50
2022-08-10T06:44:40.428Z,25.32
2022-08-10T06:45:14.879Z,25.15
2022-08-10T06:46:08.038Z,24.94
2022-08-10T06:46:46.497Z,25.11
2022-08-10T06:47:22.955Z,24.84
2022-08-10T06:48:03.571Z,24.60
2022-08-10T06:48:42.064Z,24.62
2022-08-10T06:49:14.918Z,24.99
2022-08-10T06:49:48.321Z,24.95
2022-08-10T06:50:45.349Z,25.30
2022-08-10T06:51:23.584Z,26.10
2022-08-10T06:51:57.619Z,26.45
2022-08-10T06:52:31.109Z,25.69
2022-08-10T06:53:03.299Z,26.19
2022-08-10T06:53:53.934Z,27.00
2022-08-10T06:54:27.842Z,27.09
2022-08-10T06:55:00.906Z,27.56
2022-08-10T06:55:50.128Z,27.54
2022-08-10T06:56:37.469Z,27.40
2022-08-10T06:57:19.319Z,26.90
2022-08-10T06:57:59.711Z,26.94
2022-08-10T06:58:35.997Z,26.97
2022-08-10T06:59:21.702Z,27.04
2022-08-10T06:59:55.102Z,27.05
2022-08-10T07:00:33.287Z,26.90
2022-08-10T07:01:08.250Z,26.76
2022-08-10T07:01:41.469Z,26.51
2022-08-10T07:02:30.148Z,26.22
2022-08-10T07:03:07.978Z,26.73
2022-08-10T07:03:46.732Z,26.20
2022-08-10T07:04:32.524Z,26.06
2022-08-10T07:05:06.864Z,25.54
2022-08-10T07:05:45.954Z,26.12
2022-08-10T07:06:21.238Z,26.18
2022-08-10T07:06:54.646Z,26.10
2022-08-10T07:07:28.846Z,26.29
2022-08-10T07:08:01.018Z,26.58
2022-08-10T07:08:33.619Z,26.33
2022-08-10T07:09:05.814Z,27.24
2022-08-10T07:09:39.654Z,27.20
2022-08-10T07:10:12.664Z,27.42
2022-08-10T07:10:46.752Z,27.25
2022-08-10T07:11:19.975Z,27.49
2022-08-10T07:11:52.668Z,26.87
2022-08-10T07:12:25.789Z,26.69
2022-08-10T07:13:00.177Z,26.63
2022-08-10T07:14:14.271Z,26.57
2022-08-10T07:14:24.338Z,26.14
2022-08-10T07:14:57.087Z,26.34
2022-08-10T07:15:58.117Z,26.61
2022-08-10T07:16:21.654Z,26.45
2022-08-10T07:16:53.714Z,26.58
2022-08-10T07:17:26.931Z,26.59
2022-08-10T07:17:59.088Z,26.71
2022-08-10T07:18:31.119Z,27.26
2022-08-10T07:19:03.113Z,27.08
2022-08-10T07:19:35.347Z,26.87
2022-08-10T07:20:22.982Z,26.81
2022-08-10T07:20:55.289Z,26.44
2022-08-10T07:21:28.971Z,26.63
2022-08-10T07:22:01.748Z,26.55
2022-08-10T07:23:26.875Z,26.76
2022-08-10T07:23:57.240Z,26.57
2022-08-10T07:24:20.912Z,26.22
2022-08-10T07:24:54.880Z,26.42
2022-08-10T07:25:27.578Z,27.38
2022-08-10T07:26:00.330Z,27.70
2022-08-10T07:26:32.388Z,27.99
2022-08-10T07:27:05.009Z,27.82
2022-08-10T07:27:39.144Z,27.91
2022-08-10T07:28:31.918Z,27.85
2022-08-10T07:29:05.882Z,27.51
2022-08-10T07:29:53.730Z,27.48
2022-08-10T07:30:28.419Z,27.54
2022-08-10T07:31:00.414Z,27.34
2022-08-10T07:31:55.816Z,27.58
2022-08-10T07:32:24.693Z,27.88
2022-08-10T07:32:56.551Z,27.77
2022-08-10T07:33:29.087Z,27.59
2022-08-10T07:34:02.704Z,27.67
2022-08-10T07:34:36.508Z,27.14
2022-08-10T07:35:10.308Z,27.07
2022-08-10T07:35:43.711Z,27.43
2022-08-10T07:36:15.737Z,27.95
2022-08-10T07:36:49.647Z,27.86
2022-08-10T07:37:23.172Z,28.35
2022-08-10T07:37:55.269Z,28.59
2022-08-10T07:38:29.337Z,28.15
2022-08-10T07:39:01.363Z,27.81
2022-08-10T07:39:58.499Z,28.02
2022-08-10T07:40:30.756Z,28.11
2022-08-10T07:41:02.621Z,28.12
2022-08-10T07:41:34.816Z,28.33
2022-08-10T07:42:08.404Z,28.17
2022-08-10T07:42:45.520Z,27.98
2022-08-10T07:43:19.206Z,27.88
2022-08-10T07:43:52.124Z,28.25
2022-08-10T07:44:26.917Z,27.86
2022-08-10T07:44:58.708Z,28.07
2022-08-10T07:45:32.186Z,28.28
2022-08-10T07:46:05.774Z,28.11
2022-08-10T07:46:46.158Z,28.51
2022-08-10T07:47:53.460Z,28.61
2022-08-10T07:48:35.913Z,29.10
2022-08-10T07:49:19.222Z,29.30
2022-08-10T07:49:52.442Z,29.62
2022-08-10T07:50:25.770Z,29.33
2022-08-10T07:51:00.183Z,29.67
2022-08-10T07:51:32.393Z,29.83
2022-08-10T07:52:06.907Z,30.38
2022-08-10T07:52:39.992Z,30.15
2022-08-10T07:53:17.894Z,29.98
2022-08-10T07:53:53.134Z,29.98
2022-08-10T07:54:26.576Z,29.68
2022-08-10T07:54:58.787Z,29.59
2022-08-10T07:56:04.634Z,29.49
2022-08-10T07:56:47.986Z,29.06
2022-08-10T07:57:30.627Z,29.27